Time;durP1;ratioP1;P1;durP2;ratioP2;P2;SDS_P1;SDS_P2;PMS_P1;PMS_P2;Temp;Humidity;BMP_temperature;BMP_pressure;BME280_temperature;BME280_humidity;BME280_pressure;Samples;Min_cycle;Max_cycle;Signal;HPM_P1;HPM_P2
2023/03/21 07:30:58;;;;;;;7.47;4.13;;;10.80;96.20;;;;;;7126890;23;20050;-77
2023/03/21 07:34:00;;;;;;;6.25;3.92;;;10.90;95.90;;;;;;6221522;28;20054;-78
2023/03/21 07:37:01;;;;;;;6.10;3.70;;;10.90;95.60;;;;;;6226273;28;20249;-76
2023/03/21 07:40:08;;;;;;;5.78;3.75;;;11.00;95.60;;;;;;6225462;28;20050;-77
2023/03/21 07:43:10;;;;;;;6.55;4.07;;;11.00;95.30;;;;;;6225826;28;20156;-77
2023/03/21 07:46:13;;;;;;;7.85;3.92;;;11.10;95.30;;;;;;6215686;28;20054;-76
2023/03/21 07:49:15;;;;;;;6.63;3.92;;;11.00;95.60;;;;;;6201754;28;20050;-77
2023/03/21 07:52:17;;;;;;;5.57;3.85;;;11.10;95.80;;;;;;6201327;28;20057;-75
2023/03/21 07:55:20;;;;;;;6.90;3.92;;;11.20;95.70;;;;;;6197436;28;20065;-77
2023/03/21 07:58:23;;;;;;;6.32;4.20;;;11.30;95.60;;;;;;6176388;28;20057;-76
2023/03/21 08:01:34;;;;;;;6.85;3.80;;;11.40;95.50;;;;;;6201708;28;20050;-77
2023/03/21 08:04:36;;;;;;;6.30;4.32;;;11.40;95.70;;;;;;6211765;28;20050;-76
2023/03/21 08:07:38;;;;;;;6.22;4.00;;;11.50;95.60;;;;;;6192303;28;20486;-78
2023/03/21 08:10:42;;;;;;;7.38;4.00;;;11.70;95.40;;;;;;6199949;28;20051;-77
2023/03/21 08:13:44;;;;;;;7.00;3.70;;;11.70;95.20;;;;;;6197651;28;20054;-77
2023/03/21 08:16:47;;;;;;;5.72;3.67;;;11.80;95.00;;;;;;6194186;28;20100;-77
2023/03/21 08:19:49;;;;;;;7.57;3.50;;;11.90;94.60;;;;;;6197411;28;20380;-78
2023/03/21 08:22:51;;;;;;;6.60;4.00;;;12.00;94.40;;;;;;6183718;28;20134;-78
2023/03/21 08:25:53;;;;;;;6.60;3.80;;;12.00;94.60;;;;;;6173714;28;20051;-76
2023/03/21 08:28:55;;;;;;;6.80;3.80;;;12.10;94.10;;;;;;6175736;28;20043;-77
2023/03/21 08:31:59;;;;;;;7.25;4.10;;;12.10;94.30;;;;;;6177417;28;20063;-80
2023/03/21 08:35:02;;;;;;;8.15;3.85;;;12.20;94.40;;;;;;6176941;28;20065;-77
2023/03/21 08:38:05;;;;;;;5.85;3.58;;;12.10;94.60;;;;;;6173169;28;20065;-77
2023/03/21 08:41:07;;;;;;;7.07;4.13;;;12.10;94.60;;;;;;6172796;28;20046;-77
2023/03/21 08:44:11;;;;;;;7.68;4.10;;;12.20;94.30;;;;;;6173162;28;20505;-76
2023/03/21 08:47:14;;;;;;;8.57;4.45;;;12.20;94.50;;;;;;6172634;28;20054;-76
2023/03/21 08:50:19;;;;;;;7.85;4.57;;;12.20;95.00;;;;;;6173523;28;20057;-77
2023/03/21 08:53:21;;;;;;;8.32;4.60;;;12.20;95.00;;;;;;6179900;28;20042;-78
2023/03/21 08:56:23;;;;;;;6.30;4.45;;;12.20;95.00;;;;;;6185610;28;20054;-76
2023/03/21 08:59:25;;;;;;;7.40;4.22;;;12.30;94.90;;;;;;6173497;28;20047;-77
2023/03/21 09:02:29;;;;;;;6.03;4.05;;;12.30;94.70;;;;;;6212438;28;20056;-77
2023/03/21 09:05:30;;;;;;;;;;;12.40;94.20;;;;;;6214213;28;20049;-77
2023/03/21 09:08:32;;;;;;;7.63;3.65;;;12.40;94.00;;;;;;6206876;28;19929;-77
2023/03/21 09:11:34;;;;;;;6.85;3.67;;;12.50;93.00;;;;;;6207164;28;20046;-77
2023/03/21 09:14:36;;;;;;;5.22;3.45;;;12.60;92.50;;;;;;6207819;28;20062;-79
2023/03/21 09:17:41;;;;;;;5.45;3.30;;;12.80;92.40;;;;;;6199182;28;20364;-78
2023/03/21 09:20:44;;;;;;;5.80;3.10;;;12.90;91.90;;;;;;6217185;28;20068;-77
2023/03/21 09:23:47;;;;;;;6.00;3.10;;;13.00;91.50;;;;;;6217382;28;20050;-77
2023/03/21 09:26:49;;;;;;;8.10;3.53;;;13.10;91.00;;;;;;6197843;28;20054;-79
2023/03/21 09:29:51;;;;;;;5.40;3.38;;;13.20;91.40;;;;;;6186259;28;20051;-77
2023/03/21 09:32:54;;;;;;;6.93;3.35;;;13.30;91.20;;;;;;6183749;28;20058;-82
2023/03/21 09:35:59;;;;;;;6.40;3.47;;;13.40;90.50;;;;;;6185438;28;20050;-77
2023/03/21 09:39:03;;;;;;;4.75;2.90;;;13.40;90.10;;;;;;6180629;28;20053;-78
2023/03/21 09:42:18;;;;;;;5.70;2.92;;;13.50;90.00;;;;;;6203991;28;20394;-77
2023/03/21 09:45:27;;;;;;;5.05;3.13;;;13.60;88.80;;;;;;6206126;28;20057;-77
2023/03/21 09:48:39;;;;;;;4.63;2.97;;;13.70;88.60;;;;;;6205087;28;20399;-78
2023/03/21 09:51:47;;;;;;;4.45;2.85;;;13.80;87.80;;;;;;6204461;28;20043;-78
2023/03/21 09:54:49;;;;;;;6.75;2.83;;;13.80;87.20;;;;;;6199282;28;20046;-77
2023/03/21 09:58:03;;;;;;;4.95;3.20;;;14.00;86.80;;;;;;6180318;28;20069;-80
2023/03/21 10:01:25;;;;;;;;;;;14.00;86.40;;;;;;6200140;28;20411;-76
2023/03/21 10:04:32;;;;;;;5.00;3.00;;;14.20;86.10;;;;;;6203885;28;19925;-78
2023/03/21 10:07:41;;;;;;;4.85;2.65;;;14.40;84.70;;;;;;6181459;28;20050;-80
2023/03/21 10:10:47;;;;;;;5.20;2.92;;;14.50;85.20;;;;;;6202372;28;20047;-77
2023/03/21 10:13:54;;;;;;;5.72;2.70;;;14.20;85.10;;;;;;6182515;28;20076;-78
2023/03/21 10:17:00;;;;;;;6.03;2.47;;;14.40;84.60;;;;;;6179152;28;20058;-78
2023/03/21 10:20:14;;;;;;;4.63;2.22;;;14.50;84.10;;;;;;6177423;28;20054;-78
2023/03/21 10:23:19;;;;;;;5.30;2.78;;;14.70;83.10;;;;;;6175264;28;20200;-77
2023/03/21 10:26:25;;;;;;;4.63;2.47;;;14.70;82.10;;;;;;6175861;28;20054;-77
2023/03/21 10:29:32;;;;;;;4.35;2.20;;;15.00;82.20;;;;;;6177074;28;20503;-77
2023/03/21 10:32:35;;;;;;;4.18;2.08;;;15.20;81.20;;;;;;6180110;28;20062;-78
2023/03/21 10:35:41;;;;;;;5.10;2.10;;;15.30;81.50;;;;;;6179218;28;20062;-76
2023/03/21 10:38:47;;;;;;;4.43;2.35;;;15.20;81.00;;;;;;6180469;28;20069;-78
2023/03/21 10:41:49;;;;;;;3.60;1.80;;;15.30;81.20;;;;;;6186579;28;20046;-76
2023/03/21 10:44:55;;;;;;;3.60;1.80;;;15.60;78.80;;;;;;6201595;28;20136;-78
2023/03/21 10:47:57;;;;;;;4.45;1.80;;;15.70;78.10;;;;;;6204178;28;20046;-78
2023/03/21 10:51:02;;;;;;;4.43;1.70;;;15.70;76.40;;;;;;6205225;28;20190;-77
2023/03/21 10:54:08;;;;;;;4.35;1.70;;;15.80;76.70;;;;;;6204679;28;20050;-78
2023/03/21 10:57:16;;;;;;;3.55;1.67;;;15.90;76.60;;;;;;6209390;28;20073;-80
2023/03/21 11:00:21;;;;;;;6.20;2.58;;;15.90;75.90;;;;;;6207723;28;20049;-77
2023/03/21 11:03:31;;;;;;;4.85;2.20;;;16.00;75.80;;;;;;6206822;28;20050;-77
2023/03/21 11:06:39;;;;;;;3.53;1.73;;;15.90;74.70;;;;;;6185801;28;20049;-78
2023/03/21 11:09:49;;;;;;;3.80;1.70;;;15.70;74.60;;;;;;6203382;28;20057;-78
2023/03/21 11:12:55;;;;;;;5.63;2.05;;;15.70;75.10;;;;;;6203724;28;20054;-77
2023/03/21 11:16:05;;;;;;;3.15;1.70;;;15.70;74.80;;;;;;6204306;28;20054;-77
2023/03/21 11:19:17;;;;;;;4.55;1.73;;;15.90;74.60;;;;;;6202622;28;20047;-78
2023/03/21 11:22:23;;;;;;;4.40;1.73;;;15.90;75.10;;;;;;6202678;28;20490;-78
2023/03/21 11:25:33;;;;;;;5.28;1.75;;;15.90;74.60;;;;;;6202473;28;20053;-76
2023/03/21 11:28:39;;;;;;;3.15;1.55;;;15.90;75.20;;;;;;6207219;28;20055;-77
2023/03/21 11:31:43;;;;;;;3.70;1.65;;;16.10;76.10;;;;;;6198738;28;20055;-77
2023/03/21 11:34:47;;;;;;;4.45;1.80;;;16.20;75.20;;;;;;6179162;28;20055;-76
2023/03/21 11:37:54;;;;;;;3.58;1.70;;;16.30;74.90;;;;;;6177696;28;20069;-78
2023/03/21 11:40:59;;;;;;;3.63;1.98;;;16.20;74.70;;;;;;6178072;28;20051;-76
2023/03/21 11:44:03;;;;;;;3.30;1.73;;;16.10;74.20;;;;;;6177238;28;20488;-77
2023/03/21 11:47:05;;;;;;;3.72;1.73;;;16.20;74.30;;;;;;6177374;28;20046;-76
2023/03/21 11:50:21;;;;;;;4.95;2.10;;;16.20;75.20;;;;;;6176987;28;20054;-75
2023/03/21 11:53:38;;;;;;;4.55;2.10;;;16.10;74.90;;;;;;6177311;28;20511;-75
2023/03/21 11:56:44;;;;;;;6.10;2.00;;;16.10;75.30;;;;;;6177184;28;20419;-76
2023/03/21 11:59:56;;;;;;;5.65;1.90;;;16.20;75.90;;;;;;6178622;28;20082;-75
2023/03/21 12:03:39;;;;;;;3.70;2.10;;;16.10;76.10;;;;;;6201213;28;20061;-76
2023/03/21 12:06:48;;;;;;;4.15;2.25;;;16.00;76.10;;;;;;6191153;28;20051;-76
2023/03/21 12:10:02;;;;;;;5.88;2.20;;;16.00;75.30;;;;;;6200961;28;20405;-78
2023/03/21 12:13:28;;;;;;;4.22;1.88;;;16.00;75.00;;;;;;6201048;28;20133;-77
2023/03/21 12:17:00;;;;;;;5.28;1.90;;;16.10;75.70;;;;;;6201225;28;20050;-77
2023/03/21 12:20:21;;;;;;;3.90;2.20;;;16.10;76.00;;;;;;6187028;28;20081;-76
2023/03/21 12:23:40;;;;;;;4.25;2.30;;;16.20;74.60;;;;;;6197217;28;20054;-79
2023/03/21 12:26:56;;;;;;;4.97;2.30;;;16.20;74.70;;;;;;6197773;28;20050;-79
2023/03/21 12:30:25;;;;;;;4.35;2.17;;;16.20;74.30;;;;;;6197983;28;20049;-80
2023/03/21 12:33:54;;;;;;;3.92;2.00;;;16.30;75.40;;;;;;6198097;28;20480;-78
2023/03/21 12:37:12;;;;;;;4.53;2.45;;;16.30;75.50;;;;;;6198421;28;20066;-78
2023/03/21 12:40:24;;;;;;;4.78;2.03;;;16.40;75.10;;;;;;6198703;28;20050;-78
2023/03/21 12:43:41;;;;;;;4.57;2.00;;;16.50;74.90;;;;;;6193707;28;20050;-77
2023/03/21 12:46:48;;;;;;;4.07;2.08;;;16.50;74.10;;;;;;6188424;28;20047;-76
2023/03/21 12:49:56;;;;;;;4.43;2.10;;;16.50;74.50;;;;;;6184719;28;20059;-77
2023/03/21 12:53:15;;;;;;;3.88;1.88;;;16.50;75.20;;;;;;6174379;28;20047;-76
2023/03/21 12:56:22;;;;;;;3.78;1.90;;;16.50;75.70;;;;;;6173820;28;20062;-79
2023/03/21 12:59:35;;;;;;;4.70;2.28;;;16.50;74.80;;;;;;6172953;28;20058;-76
2023/03/21 13:02:40;;;;;;;;;;;16.50;75.30;;;;;;6174026;28;20043;-77
2023/03/21 13:05:47;;;;;;;7.13;3.58;;;16.60;75.00;;;;;;6172954;28;19922;-76
2023/03/21 13:08:58;;;;;;;7.43;3.88;;;16.60;75.10;;;;;;6173874;28;20042;-76
2023/03/21 13:12:14;;;;;;;6.50;2.67;;;16.50;75.60;;;;;;6173673;28;20427;-79
2023/03/21 13:15:53;;;;;;;4.43;2.53;;;16.50;75.40;;;;;;6174665;28;20496;-80
2023/03/21 13:19:06;;;;;;;5.63;2.55;;;16.70;74.60;;;;;;6172296;28;20065;-77
2023/03/21 13:22:18;;;;;;;4.30;2.28;;;16.80;74.10;;;;;;6177919;28;20053;-77
2023/03/21 13:25:21;;;;;;;6.03;2.40;;;16.80;75.30;;;;;;6175845;28;20498;-76
2023/03/21 13:28:29;;;;;;;;;;;17.10;74.80;;;;;;6173895;28;20090;-78
2023/03/21 13:31:34;;;;;;;4.90;2.00;;;17.50;73.40;;;;;;6173272;28;20001;-79
2023/03/21 13:34:40;;;;;;;3.80;2.17;;;17.80;73.30;;;;;;6175112;28;20055;-74
2023/03/21 13:37:50;;;;;;;3.92;1.95;;;18.10;72.50;;;;;;6172622;28;20054;-76
2023/03/21 13:40:59;;;;;;;4.35;1.80;;;18.20;72.50;;;;;;6172597;28;20046;-79
2023/03/21 13:44:19;;;;;;;3.50;2.00;;;18.50;72.60;;;;;;6172390;28;20522;-79
2023/03/21 13:47:39;;;;;;;4.38;2.53;;;18.40;71.60;;;;;;6176065;28;20648;-78
2023/03/21 13:50:59;;;;;;;6.47;2.55;;;18.20;71.50;;;;;;6172646;28;20051;-77
2023/03/21 13:54:04;;;;;;;4.55;2.53;;;18.30;70.90;;;;;;6189062;28;20350;-76
2023/03/21 13:57:07;;;;;;;3.55;1.90;;;18.40;71.50;;;;;;6201802;28;20058;-77
2023/03/21 14:00:22;;;;;;;5.38;2.17;;;18.40;71.90;;;;;;6185070;28;20046;-75
2023/03/21 14:03:28;;;;;;;3.70;2.20;;;18.40;71.70;;;;;;6172195;28;20051;-77
2023/03/21 14:06:38;;;;;;;6.18;2.53;;;18.20;71.20;;;;;;6172107;28;20055;-76
2023/03/21 14:09:44;;;;;;;4.75;2.30;;;17.90;72.50;;;;;;6194493;28;20065;-78
2023/03/21 14:12:47;;;;;;;4.20;2.17;;;17.70;72.70;;;;;;6196729;28;20061;-78
2023/03/21 14:15:53;;;;;;;6.57;2.40;;;17.60;73.80;;;;;;6197321;28;20058;-77
2023/03/21 14:19:01;;;;;;;5.93;2.25;;;17.50;73.40;;;;;;6196645;28;20055;-77
2023/03/21 14:22:03;;;;;;;3.97;2.00;;;17.40;74.90;;;;;;6220186;28;20045;-76
2023/03/21 14:25:12;;;;;;;4.60;2.00;;;17.40;74.50;;;;;;6201382;28;20066;-80
2023/03/21 14:28:17;;;;;;;6.47;2.20;;;17.40;75.90;;;;;;6195841;28;20050;-77
2023/03/21 14:31:21;;;;;;;4.47;2.10;;;17.30;74.70;;;;;;6194883;28;20515;-77
2023/03/21 14:34:27;;;;;;;4.68;2.22;;;17.30;74.30;;;;;;6195583;28;20046;-76
2023/03/21 14:37:33;;;;;;;3.75;1.92;;;17.30;74.10;;;;;;6205529;28;20464;-77
2023/03/21 14:40:36;;;;;;;4.45;2.00;;;17.30;74.50;;;;;;6210522;28;20056;-77
2023/03/21 14:43:38;;;;;;;4.28;1.98;;;17.20;73.40;;;;;;6187822;28;20419;-76
2023/03/21 14:46:40;;;;;;;3.88;1.90;;;17.10;74.50;;;;;;6196104;28;20051;-78
2023/03/21 14:49:44;;;;;;;4.25;2.00;;;17.20;73.50;;;;;;6198853;28;20101;-78
2023/03/21 14:52:46;;;;;;;;;;;17.20;72.00;;;;;;6201216;28;20053;-75
2023/03/21 14:55:55;;;;;;;3.45;1.80;;;17.20;72.90;;;;;;6214482;28;19984;-78
2023/03/21 14:58:58;;;;;;;3.67;1.60;;;17.20;72.80;;;;;;6216348;28;20046;-79
2023/03/21 15:02:03;;;;;;;4.03;1.40;;;17.30;71.50;;;;;;6199777;28;20166;-79
2023/03/21 15:05:17;;;;;;;3.40;1.60;;;17.30;71.60;;;;;;6199789;28;20065;-77
2023/03/21 15:08:22;;;;;;;3.67;1.40;;;17.30;70.60;;;;;;6200163;28;20059;-77
2023/03/21 15:11:31;;;;;;;3.00;1.10;;;17.30;69.90;;;;;;6200210;28;20050;-78
2023/03/21 15:14:35;;;;;;;2.90;1.40;;;17.30;69.00;;;;;;6199630;28;20050;-77
2023/03/21 15:17:37;;;;;;;2.80;1.20;;;17.30;67.60;;;;;;6197747;28;20412;-77
2023/03/21 15:20:41;;;;;;;2.83;1.10;;;17.30;67.40;;;;;;6175296;28;20051;-78
2023/03/21 15:23:46;;;;;;;4.32;1.27;;;17.30;67.50;;;;;;6175156;28;20050;-77
2023/03/21 15:26:50;;;;;;;2.80;1.10;;;17.30;65.70;;;;;;6185386;28;20058;-77
2023/03/21 15:29:54;;;;;;;2.58;1.10;;;17.30;66.30;;;;;;6175474;28;20062;-79
2023/03/21 15:32:57;;;;;;;3.05;1.13;;;17.50;66.60;;;;;;6175708;28;20063;-77
2023/03/21 15:36:00;;;;;;;3.63;1.20;;;17.70;66.90;;;;;;6175709;28;20485;-78
2023/03/21 15:39:05;;;;;;;3.72;1.25;;;18.00;66.00;;;;;;6175203;28;20059;-78
2023/03/21 15:42:26;;;;;;;2.50;1.00;;;18.10;64.30;;;;;;6175274;28;20047;-79
2023/03/21 15:45:29;;;;;;;3.58;1.08;;;18.30;64.40;;;;;;6201491;28;20057;-77
2023/03/21 15:48:35;;;;;;;2.65;1.05;;;18.40;64.50;;;;;;6204615;28;20061;-78
2023/03/21 15:51:40;;;;;;;2.95;1.27;;;18.40;63.20;;;;;;6198666;28;20467;-77
2023/03/21 15:54:46;;;;;;;3.53;1.27;;;18.30;62.70;;;;;;6195848;28;20053;-78
2023/03/21 15:57:49;;;;;;;3.97;1.27;;;18.10;63.10;;;;;;6191094;28;20050;-77
2023/03/21 16:00:53;;;;;;;2.85;1.00;;;18.00;63.40;;;;;;6195675;28;20656;-77
2023/03/21 16:03:57;;;;;;;3.88;1.00;;;17.80;62.70;;;;;;6194676;28;20559;-80
2023/03/21 16:07:04;;;;;;;3.63;1.00;;;17.70;62.60;;;;;;6198451;28;20054;-79
2023/03/21 16:10:26;;;;;;;1.58;0.80;;;17.40;61.50;;;;;;6198971;28;20093;-77
2023/03/21 16:13:28;;;;;;;2.95;0.90;;;17.20;61.80;;;;;;6196424;28;20050;-77
2023/03/21 16:16:31;;;;;;;2.25;0.80;;;17.10;61.80;;;;;;6198919;28;20050;-77
2023/03/21 16:19:33;;;;;;;1.92;0.70;;;17.10;62.00;;;;;;6199158;28;20055;-79
2023/03/21 16:22:36;;;;;;;3.75;1.00;;;17.00;62.60;;;;;;6203392;28;20046;-77
2023/03/21 16:25:39;;;;;;;2.10;0.70;;;17.00;62.40;;;;;;6203671;28;20050;-78
2023/03/21 16:28:41;;;;;;;3.35;0.90;;;16.90;63.80;;;;;;6203836;28;20053;-79
2023/03/21 16:31:43;;;;;;;3.13;0.70;;;16.80;63.60;;;;;;6203178;28;20050;-79
2023/03/21 16:34:46;;;;;;;2.17;0.90;;;16.80;64.00;;;;;;6199379;28;20053;-77
2023/03/21 16:37:49;;;;;;;3.13;0.90;;;16.60;63.70;;;;;;6198558;28;20054;-77
2023/03/21 16:40:51;;;;;;;2.50;0.90;;;16.60;64.40;;;;;;6187857;28;20061;-78
2023/03/21 16:43:53;;;;;;;2.00;0.80;;;16.50;64.60;;;;;;6211806;28;20146;-77
2023/03/21 16:46:55;;;;;;;3.65;0.98;;;16.50;64.80;;;;;;6195925;28;20047;-79
2023/03/21 16:49:57;;;;;;;2.90;1.50;;;16.50;64.90;;;;;;6191549;28;20054;-80
2023/03/21 16:53:01;;;;;;;8.88;2.45;;;16.40;68.00;;;;;;6179696;28;20051;-78
2023/03/21 16:56:04;;;;;;;5.22;2.40;;;16.30;70.10;;;;;;6185148;28;20124;-79
2023/03/21 16:59:06;;;;;;;7.30;2.70;;;16.10;71.60;;;;;;6197878;28;20523;-78
2023/03/21 17:02:15;;;;;;;7.47;2.75;;;16.10;71.90;;;;;;6195657;28;20141;-78
2023/03/21 17:05:17;;;;;;;5.60;2.58;;;15.90;72.50;;;;;;6197622;28;20051;-81
2023/03/21 17:08:21;;;;;;;7.68;2.67;;;15.80;73.10;;;;;;6189431;28;20050;-78
2023/03/21 17:11:25;;;;;;;;;;;15.80;73.10;;;;;;6188363;28;20051;-78
2023/03/21 17:14:27;;;;;;;7.05;2.63;;;15.80;73.60;;;;;;6172982;28;19922;-79
2023/03/21 17:17:28;;;;;;;9.10;2.50;;;15.70;73.90;;;;;;6172668;28;20055;-78
2023/03/21 17:20:33;;;;;;;7.85;2.38;;;15.70;74.60;;;;;;6173617;28;20523;-79
2023/03/21 17:23:37;;;;;;;5.07;2.40;;;15.70;74.60;;;;;;6180602;28;20047;-79
2023/03/21 17:26:39;;;;;;;6.18;2.70;;;15.50;74.90;;;;;;6193643;28;20057;-76
2023/03/21 17:29:41;;;;;;;6.43;2.40;;;15.50;74.90;;;;;;6185811;28;20058;-79
2023/03/21 17:32:44;;;;;;;6.95;2.40;;;15.50;75.20;;;;;;6191370;28;20460;-77
2023/03/21 17:35:46;;;;;;;5.50;2.38;;;15.40;75.70;;;;;;6199832;28;20571;-78
2023/03/21 17:38:51;;;;;;;5.35;2.45;;;15.40;76.10;;;;;;6198202;28;20046;-77
2023/03/21 17:41:55;;;;;;;8.02;2.40;;;15.30;76.30;;;;;;6198492;28;20049;-78
2023/03/21 17:44:57;;;;;;;6.07;2.30;;;15.30;76.30;;;;;;6200858;28;20490;-79
2023/03/21 17:47:59;;;;;;;5.28;2.47;;;15.30;76.40;;;;;;6202075;28;20051;-78
2023/03/21 17:51:02;;;;;;;5.50;2.28;;;15.30;76.50;;;;;;6191987;28;20496;-78
2023/03/21 17:54:05;;;;;;;7.18;2.42;;;15.20;76.70;;;;;;6187199;28;20058;-79
2023/03/21 17:57:10;;;;;;;6.15;2.30;;;15.20;76.90;;;;;;6202705;28;20492;-78
2023/03/21 18:00:18;;;;;;;5.57;2.30;;;15.10;77.40;;;;;;6201973;28;20502;-78
2023/03/21 18:03:20;;;;;;;6.18;2.33;;;15.00;77.80;;;;;;6213550;28;20504;-78
2023/03/21 18:06:24;;;;;;;6.45;2.10;;;15.10;78.30;;;;;;6193048;28;20047;-80
2023/03/21 18:09:28;;;;;;;5.90;2.08;;;15.10;78.30;;;;;;6194392;28;20136;-81
2023/03/21 18:12:30;;;;;;;6.05;2.28;;;15.10;78.60;;;;;;6196455;28;20070;-80
2023/03/21 18:15:33;;;;;;;5.28;2.28;;;15.10;78.70;;;;;;6194731;28;20057;-82
2023/03/21 18:18:36;;;;;;;6.15;2.30;;;15.10;79.10;;;;;;6196085;28;20054;-82
2023/03/21 18:21:39;;;;;;;6.63;2.50;;;15.10;79.20;;;;;;6195553;28;20042;-81
2023/03/21 18:24:42;;;;;;;4.93;1.90;;;15.10;79.30;;;;;;6206188;28;20105;-82
2023/03/21 18:27:44;;;;;;;7.40;1.98;;;15.10;79.20;;;;;;6215375;28;20055;-83
2023/03/21 18:30:47;;;;;;;5.13;2.10;;;15.10;79.80;;;;;;6205903;28;20089;-79
2023/03/21 18:33:50;;;;;;;4.78;2.00;;;15.10;80.10;;;;;;6188064;28;20529;-78
2023/03/21 18:36:52;;;;;;;4.40;1.70;;;15.00;80.30;;;;;;6201382;28;20043;-79
2023/03/21 18:39:55;;;;;;;6.35;2.15;;;15.00;80.10;;;;;;6200162;28;20057;-79
2023/03/21 18:42:57;;;;;;;5.53;2.08;;;15.00;80.00;;;;;;6191050;28;20058;-79
2023/03/21 18:45:59;;;;;;;8.38;2.10;;;14.90;79.70;;;;;;6176092;28;20054;-80
2023/03/21 18:49:01;;;;;;;6.65;1.95;;;14.80;80.00;;;;;;6192487;28;20060;-81
2023/03/21 18:52:03;;;;;;;11.93;2.20;;;14.90;79.70;;;;;;6224608;28;20046;-78
2023/03/21 18:55:09;;;;;;;5.65;1.92;;;14.80;80.00;;;;;;6202163;28;20069;-79
2023/03/21 18:58:11;;;;;;;5.53;1.67;;;14.80;80.20;;;;;;6195694;28;20050;-78
2023/03/21 19:01:13;;;;;;;4.95;1.90;;;14.80;80.10;;;;;;6195195;28;20050;-77
2023/03/21 19:04:17;;;;;;;5.72;1.98;;;14.80;80.20;;;;;;6196476;28;20050;-79
2023/03/21 19:07:19;;;;;;;6.20;2.15;;;14.80;80.70;;;;;;6175001;28;20049;-78
2023/03/21 19:10:24;;;;;;;5.30;1.80;;;14.80;80.90;;;;;;6183006;28;20411;-80
2023/03/21 19:13:26;;;;;;;5.68;1.80;;;14.80;81.20;;;;;;6199349;28;20060;-77
2023/03/21 19:16:28;;;;;;;6.78;1.80;;;14.80;81.40;;;;;;6198641;28;20527;-76
2023/03/21 19:19:29;;;;;;;7.35;2.15;;;14.80;82.10;;;;;;6198572;28;20076;-77
2023/03/21 19:22:32;;;;;;;8.82;1.98;;;14.70;82.40;;;;;;6192005;28;20057;-78
2023/03/21 19:25:35;;;;;;;9.77;2.53;;;14.70;81.80;;;;;;6198521;28;20046;-78
2023/03/21 19:28:37;;;;;;;6.75;2.60;;;14.70;81.10;;;;;;6199857;28;20051;-80
2023/03/21 19:31:39;;;;;;;7.00;2.45;;;14.60;80.70;;;;;;6189066;28;20070;-78
2023/03/21 19:34:41;;;;;;;7.28;2.50;;;14.60;80.70;;;;;;6182529;28;20047;-81
2023/03/21 19:37:43;;;;;;;5.40;2.45;;;14.50;80.60;;;;;;6181886;28;20053;-77
2023/03/21 19:40:46;;;;;;;7.45;2.47;;;14.60;81.80;;;;;;6175499;28;20047;-78
2023/03/21 19:43:48;;;;;;;6.43;2.70;;;14.60;82.30;;;;;;6190715;28;20139;-79
2023/03/21 19:46:50;;;;;;;8.75;2.70;;;14.60;82.50;;;;;;6197724;28;20116;-79
2023/03/21 19:49:54;;;;;;;5.30;2.35;;;14.50;83.80;;;;;;6198717;28;20503;-79
2023/03/21 19:52:59;;;;;;;6.88;2.67;;;14.50;83.20;;;;;;6191547;28;20051;-81
2023/03/21 19:56:02;;;;;;;6.68;2.53;;;14.50;82.90;;;;;;6181650;28;20062;-78
2023/03/21 19:59:05;;;;;;;6.82;2.42;;;14.50;84.10;;;;;;6174382;28;20054;-77
2023/03/21 20:02:08;;;;;;;5.78;2.00;;;14.40;84.90;;;;;;6194393;28;20074;-78
2023/03/21 20:05:11;;;;;;;6.57;2.60;;;14.40;84.70;;;;;;6188600;28;20055;-79
2023/03/21 20:08:13;;;;;;;6.75;2.40;;;14.30;84.70;;;;;;6192249;28;20056;-77
2023/03/21 20:11:16;;;;;;;7.43;2.47;;;14.20;83.60;;;;;;6197695;28;20078;-78
2023/03/21 20:14:18;;;;;;;8.80;2.88;;;14.10;83.80;;;;;;6197681;28;20043;-77
2023/03/21 20:17:20;;;;;;;5.93;3.03;;;14.00;84.20;;;;;;6197633;28;20145;-75
2023/03/21 20:20:22;;;;;;;6.90;3.40;;;14.00;84.30;;;;;;6198087;28;20057;-77
2023/03/21 20:23:24;;;;;;;6.97;3.17;;;14.00;84.10;;;;;;6196400;28;20065;-77
2023/03/21 20:26:29;;;;;;;12.25;4.60;;;14.00;84.10;;;;;;6193647;28;20050;-77
2023/03/21 20:29:31;;;;;;;9.27;4.40;;;14.10;83.50;;;;;;6196858;28;20046;-78
2023/03/21 20:32:33;;;;;;;5.70;3.15;;;14.10;83.20;;;;;;6196862;28;20060;-76
2023/03/21 20:35:35;;;;;;;6.47;2.58;;;14.20;82.90;;;;;;6185134;28;20061;-78
2023/03/21 20:38:38;;;;;;;4.70;2.38;;;14.20;83.00;;;;;;6187582;28;20401;-77
2023/03/21 20:41:41;;;;;;;5.40;2.40;;;14.20;83.20;;;;;;6172511;28;20194;-79
2023/03/21 20:44:43;;;;;;;5.90;2.35;;;14.20;83.80;;;;;;6189818;28;20046;-77
2023/03/21 20:47:45;;;;;;;5.35;2.30;;;14.10;85.20;;;;;;6211256;28;20103;-79
2023/03/21 20:50:47;;;;;;;6.53;2.30;;;14.00;85.80;;;;;;6185340;28;20050;-77
2023/03/21 20:53:49;;;;;;;8.77;4.18;;;13.90;86.20;;;;;;6182733;28;20053;-78
2023/03/21 20:56:52;;;;;;;7.63;3.95;;;13.80;86.70;;;;;;6198397;28;20057;-79
2023/03/21 20:59:54;;;;;;;;;;;13.80;86.70;;;;;;6198477;28;20136;-76
2023/03/21 21:02:56;;;;;;;8.97;4.20;;;13.80;86.90;;;;;;6203876;28;20287;-78
2023/03/21 21:05:58;;;;;;;9.00;4.40;;;13.80;86.90;;;;;;6186859;28;20057;-76
2023/03/21 21:09:00;;;;;;;9.20;4.68;;;13.80;87.30;;;;;;6195880;28;20046;-77
2023/03/21 21:12:04;;;;;;;9.45;4.32;;;13.80;87.10;;;;;;6197145;28;20050;-80
2023/03/21 21:15:09;;;;;;;8.05;4.40;;;13.70;87.00;;;;;;6207305;28;20057;-78
2023/03/21 21:18:12;;;;;;;8.18;4.32;;;13.80;87.40;;;;;;6206437;28;20050;-77
2023/03/21 21:21:15;;;;;;;9.10;4.45;;;13.80;88.40;;;;;;6205399;28;20407;-76
2023/03/21 21:24:17;;;;;;;7.43;4.13;;;13.80;88.60;;;;;;6201661;28;20146;-76
2023/03/21 21:27:20;;;;;;;9.07;4.47;;;13.80;88.40;;;;;;6200167;28;20054;-77
2023/03/21 21:30:22;;;;;;;8.80;4.70;;;13.80;88.20;;;;;;6201610;28;20412;-77
2023/03/21 21:33:27;;;;;;;10.73;4.72;;;13.80;88.20;;;;;;6193517;28;20058;-78
2023/03/21 21:36:29;;;;;;;8.57;4.75;;;13.80;88.60;;;;;;6196995;28;20408;-77
2023/03/21 21:39:34;;;;;;;11.45;4.90;;;13.80;88.80;;;;;;6195895;28;20101;-79
2023/03/21 21:42:37;;;;;;;7.72;4.65;;;13.80;88.90;;;;;;6201348;28;20204;-77
2023/03/21 21:45:39;;;;;;;8.82;4.85;;;13.70;88.90;;;;;;6191048;28;20047;-77
2023/03/21 21:48:41;;;;;;;9.10;4.25;;;13.80;88.90;;;;;;6173105;28;20058;-78
2023/03/21 21:51:44;;;;;;;9.13;4.65;;;13.80;89.40;;;;;;6172140;28;20058;-78
2023/03/21 21:54:47;;;;;;;7.57;4.17;;;13.70;90.00;;;;;;6172101;28;20078;-78
2023/03/21 21:57:51;;;;;;;9.43;4.30;;;13.70;90.20;;;;;;6186820;28;20061;-77
2023/03/21 22:00:53;;;;;;;9.25;4.07;;;13.60;90.10;;;;;;6215239;28;20397;-77
2023/03/21 22:04:04;;;;;;;10.07;4.32;;;13.60;90.10;;;;;;6216416;28;20047;-80
2023/03/21 22:07:12;;;;;;;9.05;4.38;;;13.60;89.70;;;;;;6201139;28;20518;-78
2023/03/21 22:10:15;;;;;;;7.88;3.90;;;13.60;89.40;;;;;;6202282;28;20393;-78
2023/03/21 22:13:18;;;;;;;9.38;3.85;;;13.50;88.80;;;;;;6201436;28;20420;-79
2023/03/21 22:16:20;;;;;;;8.25;3.58;;;13.40;89.00;;;;;;6200360;28;20053;-77
2023/03/21 22:19:22;;;;;;;7.00;3.38;;;13.40;89.30;;;;;;6182087;28;20054;-76
2023/03/21 22:22:24;;;;;;;9.00;3.92;;;13.40;88.90;;;;;;6199730;28;20141;-79
2023/03/21 22:25:26;;;;;;;6.63;3.20;;;13.50;88.90;;;;;;6199595;28;20061;-77
2023/03/21 22:28:31;;;;;;;7.15;3.30;;;13.50;89.80;;;;;;6200524;28;20054;-77
2023/03/21 22:31:32;;;;;;;8.02;2.70;;;13.40;90.00;;;;;;6198611;28;20089;-78
2023/03/21 22:34:35;;;;;;;9.32;2.78;;;13.40;90.30;;;;;;6198816;28;20376;-76
2023/03/21 22:37:39;;;;;;;9.13;3.05;;;13.20;90.20;;;;;;6175370;28;20057;-77
2023/03/21 22:40:41;;;;;;;7.35;2.53;;;13.30;90.40;;;;;;6175678;28;20414;-78
2023/03/21 22:43:44;;;;;;;6.60;2.70;;;13.20;90.70;;;;;;6177249;28;20054;-78
2023/03/21 22:46:46;;;;;;;8.75;3.08;;;13.20;90.80;;;;;;6181207;28;20066;-78
2023/03/21 22:49:48;;;;;;;5.10;2.28;;;13.20;90.90;;;;;;6175373;28;20709;-80
2023/03/21 22:52:50;;;;;;;8.88;2.45;;;13.20;91.20;;;;;;6175339;28;20408;-78
2023/03/21 22:55:52;;;;;;;6.68;2.53;;;13.10;91.10;;;;;;6184918;28;20054;-79
2023/03/21 22:58:56;;;;;;;7.82;2.72;;;13.10;91.20;;;;;;6198913;28;20085;-78
